sensor_id;sensor_type;location;lat;lon;timestamp;temperature;humidity
10566;DHT22;5331;48.148;16.326;2023-07-13T00:01:45;20.20;1.00
10566;DHT22;5331;48.148;16.326;2023-07-13T00:04:15;20.20;1.00
10566;DHT22;5331;48.148;16.326;2023-07-13T00:06:43;20.20;1.00
10566;DHT22;5331;48.148;16.326;2023-07-13T00:09:11;20.20;1.00
10566;DHT22;5331;48.148;16.326;2023-07-13T00:11:39;20.10;1.00
10566;DHT22;5331;48.148;16.326;2023-07-13T00:14:06;20.20;1.00
10566;DHT22;5331;48.148;16.326;2023-07-13T00:16:34;20.10;1.00
10566;DHT22;5331;48.148;16.326;2023-07-13T00:19:01;20.10;1.00
10566;DHT22;5331;48.148;16.326;2023-07-13T00:21:28;20.00;1.00
10566;DHT22;5331;48.148;16.326;2023-07-13T00:23:55;20.00;1.00
10566;DHT22;5331;48.148;16.326;2023-07-13T00:26:24;19.90;1.00
10566;DHT22;5331;48.148;16.326;2023-07-13T00:28:51;19.90;1.00
10566;DHT22;5331;48.148;16.326;2023-07-13T00:31:18;19.90;1.00
10566;DHT22;5331;48.148;16.326;2023-07-13T00:33:45;19.90;1.00
10566;DHT22;5331;48.148;16.326;2023-07-13T00:36:12;19.90;1.00
10566;DHT22;5331;48.148;16.326;2023-07-13T00:38:39;19.90;1.00
10566;DHT22;5331;48.148;16.326;2023-07-13T00:41:07;19.80;1.00
10566;DHT22;5331;48.148;16.326;2023-07-13T00:43:35;19.90;1.00
10566;DHT22;5331;48.148;16.326;2023-07-13T00:46:15;19.80;1.00
10566;DHT22;5331;48.148;16.326;2023-07-13T00:48:45;19.80;1.00
10566;DHT22;5331;48.148;16.326;2023-07-13T00:51:13;19.80;1.00
10566;DHT22;5331;48.148;16.326;2023-07-13T00:53:42;19.70;1.00
10566;DHT22;5331;48.148;16.326;2023-07-13T00:56:09;19.70;1.00
10566;DHT22;5331;48.148;16.326;2023-07-13T00:58:38;19.70;1.00
10566;DHT22;5331;48.148;16.326;2023-07-13T01:01:05;19.70;1.00
10566;DHT22;5331;48.148;16.326;2023-07-13T01:03:34;19.80;1.00
10566;DHT22;5331;48.148;16.326;2023-07-13T01:06:01;19.70;1.00
10566;DHT22;5331;48.148;16.326;2023-07-13T01:08:27;19.80;1.00
10566;DHT22;5331;48.148;16.326;2023-07-13T01:10:56;19.80;1.00
10566;DHT22;5331;48.148;16.326;2023-07-13T01:13:23;19.90;1.00
10566;DHT22;5331;48.148;16.326;2023-07-13T01:15:52;20.00;1.00
10566;DHT22;5331;48.148;16.326;2023-07-13T01:18:21;20.00;1.00
10566;DHT22;5331;48.148;16.326;2023-07-13T01:20:55;20.10;1.00
10566;DHT22;5331;48.148;16.326;2023-07-13T01:23:23;20.10;1.00
10566;DHT22;5331;48.148;16.326;2023-07-13T01:25:51;20.00;1.00
10566;DHT22;5331;48.148;16.326;2023-07-13T01:28:19;20.00;1.00
10566;DHT22;5331;48.148;16.326;2023-07-13T01:30:46;20.00;1.00
10566;DHT22;5331;48.148;16.326;2023-07-13T01:33:14;20.10;1.00
10566;DHT22;5331;48.148;16.326;2023-07-13T01:35:41;20.10;1.00
10566;DHT22;5331;48.148;16.326;2023-07-13T01:38:11;20.10;1.00
10566;DHT22;5331;48.148;16.326;2023-07-13T01:40:38;20.10;1.00
10566;DHT22;5331;48.148;16.326;2023-07-13T01:43:05;20.20;1.00
10566;DHT22;5331;48.148;16.326;2023-07-13T01:45:32;20.20;1.00
10566;DHT22;5331;48.148;16.326;2023-07-13T01:47:59;20.30;1.00
10566;DHT22;5331;48.148;16.326;2023-07-13T01:50:26;20.30;1.00
10566;DHT22;5331;48.148;16.326;2023-07-13T01:52:53;20.30;1.00
10566;DHT22;5331;48.148;16.326;2023-07-13T01:55:22;20.50;1.00
10566;DHT22;5331;48.148;16.326;2023-07-13T01:57:49;20.60;1.00
10566;DHT22;5331;48.148;16.326;2023-07-13T02:00:17;20.70;1.00
10566;DHT22;5331;48.148;16.326;2023-07-13T02:02:44;20.80;1.00
10566;DHT22;5331;48.148;16.326;2023-07-13T02:05:11;20.90;1.00
10566;DHT22;5331;48.148;16.326;2023-07-13T02:07:38;20.90;1.00
10566;DHT22;5331;48.148;16.326;2023-07-13T02:10:06;20.90;1.00
10566;DHT22;5331;48.148;16.326;2023-07-13T02:12:35;21.00;1.00
10566;DHT22;5331;48.148;16.326;2023-07-13T02:15:03;21.00;1.00
10566;DHT22;5331;48.148;16.326;2023-07-13T02:17:30;21.20;1.00
10566;DHT22;5331;48.148;16.326;2023-07-13T02:19:57;21.30;1.00
10566;DHT22;5331;48.148;16.326;2023-07-13T02:22:24;21.50;1.00
10566;DHT22;5331;48.148;16.326;2023-07-13T02:24:51;21.50;1.00
10566;DHT22;5331;48.148;16.326;2023-07-13T02:27:18;21.60;1.00
10566;DHT22;5331;48.148;16.326;2023-07-13T02:29:46;21.70;1.00
10566;DHT22;5331;48.148;16.326;2023-07-13T02:32:13;21.80;1.00
10566;DHT22;5331;48.148;16.326;2023-07-13T02:34:41;21.90;1.00
10566;DHT22;5331;48.148;16.326;2023-07-13T02:37:08;21.90;1.00
10566;DHT22;5331;48.148;16.326;2023-07-13T02:39:36;21.90;1.00
10566;DHT22;5331;48.148;16.326;2023-07-13T02:42:03;22.00;1.00
10566;DHT22;5331;48.148;16.326;2023-07-13T02:44:30;22.00;1.00
10566;DHT22;5331;48.148;16.326;2023-07-13T02:46:58;22.00;1.00
10566;DHT22;5331;48.148;16.326;2023-07-13T02:49:25;22.00;1.00
10566;DHT22;5331;48.148;16.326;2023-07-13T02:51:52;22.10;1.00
10566;DHT22;5331;48.148;16.326;2023-07-13T02:54:19;22.10;1.00
10566;DHT22;5331;48.148;16.326;2023-07-13T02:56:46;22.10;1.00
10566;DHT22;5331;48.148;16.326;2023-07-13T02:59:13;22.10;1.00
10566;DHT22;5331;48.148;16.326;2023-07-13T03:01:39;22.00;1.00
10566;DHT22;5331;48.148;16.326;2023-07-13T03:04:08;21.90;1.00
10566;DHT22;5331;48.148;16.326;2023-07-13T03:06:35;21.90;1.00
10566;DHT22;5331;48.148;16.326;2023-07-13T03:09:02;21.70;1.00
10566;DHT22;5331;48.148;16.326;2023-07-13T03:11:29;21.60;1.00
10566;DHT22;5331;48.148;16.326;2023-07-13T03:13:56;21.50;1.00
10566;DHT22;5331;48.148;16.326;2023-07-13T03:16:23;21.50;1.00
10566;DHT22;5331;48.148;16.326;2023-07-13T03:18:50;21.30;1.00
10566;DHT22;5331;48.148;16.326;2023-07-13T03:21:18;21.20;1.00
10566;DHT22;5331;48.148;16.326;2023-07-13T03:23:46;21.10;1.00
10566;DHT22;5331;48.148;16.326;2023-07-13T03:26:14;21.00;1.00
10566;DHT22;5331;48.148;16.326;2023-07-13T03:28:43;21.00;1.00
10566;DHT22;5331;48.148;16.326;2023-07-13T03:31:12;20.90;1.00
10566;DHT22;5331;48.148;16.326;2023-07-13T03:33:39;20.80;1.00
10566;DHT22;5331;48.148;16.326;2023-07-13T03:36:07;20.60;1.00
10566;DHT22;5331;48.148;16.326;2023-07-13T03:38:36;20.50;1.00
10566;DHT22;5331;48.148;16.326;2023-07-13T03:41:03;20.40;1.00
10566;DHT22;5331;48.148;16.326;2023-07-13T03:43:30;20.30;1.00
10566;DHT22;5331;48.148;16.326;2023-07-13T03:45:56;20.20;1.00
10566;DHT22;5331;48.148;16.326;2023-07-13T03:48:23;20.10;1.00
10566;DHT22;5331;48.148;16.326;2023-07-13T03:50:50;20.00;1.00
10566;DHT22;5331;48.148;16.326;2023-07-13T03:53:17;20.10;1.00
10566;DHT22;5331;48.148;16.326;2023-07-13T03:55:46;20.00;1.00
10566;DHT22;5331;48.148;16.326;2023-07-13T03:58:32;20.00;1.00
10566;DHT22;5331;48.148;16.326;2023-07-13T04:00:59;20.00;1.00
10566;DHT22;5331;48.148;16.326;2023-07-13T04:03:28;20.00;1.00
10566;DHT22;5331;48.148;16.326;2023-07-13T04:05:58;19.90;1.00
10566;DHT22;5331;48.148;16.326;2023-07-13T04:08:26;19.90;1.00
10566;DHT22;5331;48.148;16.326;2023-07-13T04:10:55;19.90;1.00
10566;DHT22;5331;48.148;16.326;2023-07-13T04:13:22;19.80;1.00
10566;DHT22;5331;48.148;16.326;2023-07-13T04:15:49;19.80;1.00
10566;DHT22;5331;48.148;16.326;2023-07-13T04:18:17;19.80;1.00
10566;DHT22;5331;48.148;16.326;2023-07-13T04:20:45;19.80;1.00
10566;DHT22;5331;48.148;16.326;2023-07-13T04:23:12;19.70;1.00
10566;DHT22;5331;48.148;16.326;2023-07-13T04:25:39;19.70;1.00
10566;DHT22;5331;48.148;16.326;2023-07-13T04:28:07;19.70;1.00
10566;DHT22;5331;48.148;16.326;2023-07-13T04:30:34;19.70;1.00
10566;DHT22;5331;48.148;16.326;2023-07-13T04:33:01;19.60;1.00
10566;DHT22;5331;48.148;16.326;2023-07-13T04:35:30;19.60;1.00
10566;DHT22;5331;48.148;16.326;2023-07-13T04:37:57;19.60;1.00
10566;DHT22;5331;48.148;16.326;2023-07-13T04:40:24;19.70;1.00
10566;DHT22;5331;48.148;16.326;2023-07-13T04:42:50;19.80;1.00
10566;DHT22;5331;48.148;16.326;2023-07-13T04:45:19;19.80;1.00
10566;DHT22;5331;48.148;16.326;2023-07-13T04:47:46;19.80;1.00
10566;DHT22;5331;48.148;16.326;2023-07-13T04:50:13;19.90;1.00
10566;DHT22;5331;48.148;16.326;2023-07-13T04:52:45;19.90;1.00
10566;DHT22;5331;48.148;16.326;2023-07-13T04:55:12;19.90;1.00
10566;DHT22;5331;48.148;16.326;2023-07-13T04:57:39;19.90;1.00
10566;DHT22;5331;48.148;16.326;2023-07-13T05:00:07;19.90;1.00
10566;DHT22;5331;48.148;16.326;2023-07-13T05:02:38;19.90;1.00
10566;DHT22;5331;48.148;16.326;2023-07-13T05:05:06;19.90;1.00
10566;DHT22;5331;48.148;16.326;2023-07-13T05:07:33;19.90;1.00
10566;DHT22;5331;48.148;16.326;2023-07-13T05:10:00;19.90;1.00
10566;DHT22;5331;48.148;16.326;2023-07-13T05:12:27;20.00;1.00
10566;DHT22;5331;48.148;16.326;2023-07-13T05:14:54;20.00;1.00
10566;DHT22;5331;48.148;16.326;2023-07-13T05:17:21;20.00;1.00
10566;DHT22;5331;48.148;16.326;2023-07-13T05:19:50;20.00;1.00
10566;DHT22;5331;48.148;16.326;2023-07-13T05:22:17;20.00;1.00
10566;DHT22;5331;48.148;16.326;2023-07-13T05:24:43;20.00;1.00
10566;DHT22;5331;48.148;16.326;2023-07-13T05:27:11;20.10;1.00
10566;DHT22;5331;48.148;16.326;2023-07-13T05:29:38;20.20;1.00
10566;DHT22;5331;48.148;16.326;2023-07-13T05:32:06;20.30;1.00
10566;DHT22;5331;48.148;16.326;2023-07-13T05:34:33;20.40;1.00
10566;DHT22;5331;48.148;16.326;2023-07-13T05:37:01;20.40;1.00
10566;DHT22;5331;48.148;16.326;2023-07-13T05:39:28;20.60;1.00
10566;DHT22;5331;48.148;16.326;2023-07-13T05:41:54;20.60;1.00
10566;DHT22;5331;48.148;16.326;2023-07-13T05:44:21;20.60;1.00
10566;DHT22;5331;48.148;16.326;2023-07-13T05:46:48;20.60;1.00
10566;DHT22;5331;48.148;16.326;2023-07-13T05:49:15;20.60;1.00
10566;DHT22;5331;48.148;16.326;2023-07-13T05:51:42;20.40;1.00
10566;DHT22;5331;48.148;16.326;2023-07-13T05:54:10;20.40;1.00
10566;DHT22;5331;48.148;16.326;2023-07-13T05:56:37;20.30;1.00
10566;DHT22;5331;48.148;16.326;2023-07-13T05:59:04;20.20;1.00
10566;DHT22;5331;48.148;16.326;2023-07-13T06:01:31;20.20;1.00
10566;DHT22;5331;48.148;16.326;2023-07-13T06:03:58;20.20;1.00
10566;DHT22;5331;48.148;16.326;2023-07-13T06:06:25;20.20;1.00
10566;DHT22;5331;48.148;16.326;2023-07-13T06:08:52;20.20;1.00
10566;DHT22;5331;48.148;16.326;2023-07-13T06:11:23;20.20;1.00
10566;DHT22;5331;48.148;16.326;2023-07-13T06:13:50;20.10;1.00
10566;DHT22;5331;48.148;16.326;2023-07-13T06:16:17;20.10;1.00
10566;DHT22;5331;48.148;16.326;2023-07-13T06:18:44;20.20;1.00
10566;DHT22;5331;48.148;16.326;2023-07-13T06:21:13;20.20;1.00
10566;DHT22;5331;48.148;16.326;2023-07-13T06:23:40;20.10;1.00
10566;DHT22;5331;48.148;16.326;2023-07-13T06:26:07;20.10;1.00
10566;DHT22;5331;48.148;16.326;2023-07-13T06:28:36;20.20;1.00
10566;DHT22;5331;48.148;16.326;2023-07-13T06:31:05;20.20;1.00
10566;DHT22;5331;48.148;16.326;2023-07-13T06:33:33;20.20;1.00
10566;DHT22;5331;48.148;16.326;2023-07-13T06:36:00;20.20;1.00
10566;DHT22;5331;48.148;16.326;2023-07-13T06:38:28;20.30;1.00
10566;DHT22;5331;48.148;16.326;2023-07-13T06:40:54;20.40;1.00
10566;DHT22;5331;48.148;16.326;2023-07-13T06:43:21;20.40;1.00
10566;DHT22;5331;48.148;16.326;2023-07-13T06:45:54;20.50;1.00
10566;DHT22;5331;48.148;16.326;2023-07-13T06:48:22;20.60;1.00
10566;DHT22;5331;48.148;16.326;2023-07-13T06:50:49;20.60;1.00
10566;DHT22;5331;48.148;16.326;2023-07-13T06:53:18;20.70;1.00
10566;DHT22;5331;48.148;16.326;2023-07-13T06:55:45;20.70;1.00
10566;DHT22;5331;48.148;16.326;2023-07-13T06:58:12;20.80;1.00
10566;DHT22;5331;48.148;16.326;2023-07-13T07:00:39;20.90;1.00
10566;DHT22;5331;48.148;16.326;2023-07-13T07:03:08;21.10;1.00
10566;DHT22;5331;48.148;16.326;2023-07-13T07:05:34;21.30;1.00
10566;DHT22;5331;48.148;16.326;2023-07-13T07:08:01;21.50;1.00
10566;DHT22;5331;48.148;16.326;2023-07-13T07:10:30;21.70;1.00
10566;DHT22;5331;48.148;16.326;2023-07-13T07:12:57;21.90;1.00
10566;DHT22;5331;48.148;16.326;2023-07-13T07:15:23;22.00;1.00
10566;DHT22;5331;48.148;16.326;2023-07-13T07:17:50;21.90;1.00
10566;DHT22;5331;48.148;16.326;2023-07-13T07:20:18;22.10;1.00
10566;DHT22;5331;48.148;16.326;2023-07-13T07:22:46;22.10;1.00
10566;DHT22;5331;48.148;16.326;2023-07-13T07:25:12;22.10;1.00
10566;DHT22;5331;48.148;16.326;2023-07-13T07:27:39;21.90;1.00
10566;DHT22;5331;48.148;16.326;2023-07-13T07:30:07;21.90;1.00
10566;DHT22;5331;48.148;16.326;2023-07-13T07:32:34;21.90;1.00
10566;DHT22;5331;48.148;16.326;2023-07-13T07:35:01;21.90;1.00
10566;DHT22;5331;48.148;16.326;2023-07-13T07:37:29;21.90;1.00
10566;DHT22;5331;48.148;16.326;2023-07-13T07:39:56;21.90;1.00
10566;DHT22;5331;48.148;16.326;2023-07-13T07:42:24;22.00;1.00
10566;DHT22;5331;48.148;16.326;2023-07-13T07:44:51;22.00;1.00
10566;DHT22;5331;48.148;16.326;2023-07-13T07:47:18;22.00;1.00
10566;DHT22;5331;48.148;16.326;2023-07-13T07:49:45;22.10;1.00
10566;DHT22;5331;48.148;16.326;2023-07-13T07:52:12;22.10;1.00
10566;DHT22;5331;48.148;16.326;2023-07-13T07:54:40;22.20;1.00
10566;DHT22;5331;48.148;16.326;2023-07-13T07:57:07;22.60;1.00
10566;DHT22;5331;48.148;16.326;2023-07-13T07:59:36;23.10;1.00
10566;DHT22;5331;48.148;16.326;2023-07-13T08:02:03;23.50;1.00
10566;DHT22;5331;48.148;16.326;2023-07-13T08:04:30;23.80;1.00
10566;DHT22;5331;48.148;16.326;2023-07-13T08:06:57;24.10;1.00
10566;DHT22;5331;48.148;16.326;2023-07-13T08:09:24;24.50;1.00
10566;DHT22;5331;48.148;16.326;2023-07-13T08:11:52;24.80;1.00
10566;DHT22;5331;48.148;16.326;2023-07-13T08:14:20;25.10;1.00
10566;DHT22;5331;48.148;16.326;2023-07-13T08:16:47;25.20;1.00
10566;DHT22;5331;48.148;16.326;2023-07-13T08:19:13;25.60;1.00
10566;DHT22;5331;48.148;16.326;2023-07-13T08:21:40;26.00;1.00
10566;DHT22;5331;48.148;16.326;2023-07-13T08:24:08;26.40;1.00
10566;DHT22;5331;48.148;16.326;2023-07-13T08:26:35;26.60;1.00
10566;DHT22;5331;48.148;16.326;2023-07-13T08:29:04;26.60;1.00
10566;DHT22;5331;48.148;16.326;2023-07-13T08:31:31;26.90;1.00
10566;DHT22;5331;48.148;16.326;2023-07-13T08:33:57;27.00;1.00
10566;DHT22;5331;48.148;16.326;2023-07-13T08:36:25;27.30;1.00
10566;DHT22;5331;48.148;16.326;2023-07-13T08:38:52;27.30;1.00
10566;DHT22;5331;48.148;16.326;2023-07-13T08:41:21;27.60;1.00
10566;DHT22;5331;48.148;16.326;2023-07-13T08:43:50;28.00;1.00
10566;DHT22;5331;48.148;16.326;2023-07-13T08:46:23;28.10;1.00
10566;DHT22;5331;48.148;16.326;2023-07-13T08:48:53;28.30;1.00
10566;DHT22;5331;48.148;16.326;2023-07-13T08:51:36;28.20;1.00
10566;DHT22;5331;48.148;16.326;2023-07-13T08:54:12;28.30;1.00
10566;DHT22;5331;48.148;16.326;2023-07-13T08:56:45;28.40;1.00
10566;DHT22;5331;48.148;16.326;2023-07-13T08:59:14;28.70;1.00
10566;DHT22;5331;48.148;16.326;2023-07-13T09:01:54;28.60;1.00
10566;DHT22;5331;48.148;16.326;2023-07-13T09:04:28;28.70;1.00
10566;DHT22;5331;48.148;16.326;2023-07-13T09:07:03;28.80;1.00
10566;DHT22;5331;48.148;16.326;2023-07-13T09:09:41;28.50;1.00
10566;DHT22;5331;48.148;16.326;2023-07-13T09:12:19;28.30;1.00
10566;DHT22;5331;48.148;16.326;2023-07-13T09:14:50;28.40;1.00
10566;DHT22;5331;48.148;16.326;2023-07-13T09:17:22;28.40;1.00
10566;DHT22;5331;48.148;16.326;2023-07-13T09:19:54;28.60;1.00
10566;DHT22;5331;48.148;16.326;2023-07-13T09:22:24;28.80;1.00
10566;DHT22;5331;48.148;16.326;2023-07-13T09:25:00;29.00;1.00
10566;DHT22;5331;48.148;16.326;2023-07-13T09:27:35;29.10;1.00
10566;DHT22;5331;48.148;16.326;2023-07-13T09:30:24;29.00;1.00
10566;DHT22;5331;48.148;16.326;2023-07-13T09:32:57;28.20;1.00
10566;DHT22;5331;48.148;16.326;2023-07-13T09:35:26;27.60;1.00
10566;DHT22;5331;48.148;16.326;2023-07-13T09:37:59;27.40;1.00
10566;DHT22;5331;48.148;16.326;2023-07-13T09:40:39;27.40;1.00
10566;DHT22;5331;48.148;16.326;2023-07-13T09:43:10;27.60;1.00
10566;DHT22;5331;48.148;16.326;2023-07-13T09:45:39;28.10;1.00
10566;DHT22;5331;48.148;16.326;2023-07-13T09:48:13;28.10;1.00
10566;DHT22;5331;48.148;16.326;2023-07-13T09:50:42;28.10;1.00
10566;DHT22;5331;48.148;16.326;2023-07-13T09:53:14;28.40;1.00
10566;DHT22;5331;48.148;16.326;2023-07-13T09:55:45;28.60;1.00
10566;DHT22;5331;48.148;16.326;2023-07-13T09:58:15;28.90;1.00
10566;DHT22;5331;48.148;16.326;2023-07-13T10:00:53;29.20;1.00
10566;DHT22;5331;48.148;16.326;2023-07-13T10:03:25;29.60;1.00
10566;DHT22;5331;48.148;16.326;2023-07-13T10:05:54;29.70;1.00
10566;DHT22;5331;48.148;16.326;2023-07-13T10:08:24;29.80;1.00
10566;DHT22;5331;48.148;16.326;2023-07-13T10:10:57;29.60;1.00
10566;DHT22;5331;48.148;16.326;2023-07-13T10:13:28;29.60;1.00
10566;DHT22;5331;48.148;16.326;2023-07-13T10:15:56;29.70;1.00
10566;DHT22;5331;48.148;16.326;2023-07-13T10:18:26;29.80;1.00
10566;DHT22;5331;48.148;16.326;2023-07-13T10:21:08;29.80;1.00
10566;DHT22;5331;48.148;16.326;2023-07-13T10:23:36;29.90;1.00
10566;DHT22;5331;48.148;16.326;2023-07-13T10:26:11;30.00;1.00
10566;DHT22;5331;48.148;16.326;2023-07-13T10:28:41;29.90;1.00
10566;DHT22;5331;48.148;16.326;2023-07-13T10:31:12;29.90;1.00
10566;DHT22;5331;48.148;16.326;2023-07-13T10:33:42;30.10;1.00
10566;DHT22;5331;48.148;16.326;2023-07-13T10:36:28;30.10;1.00
10566;DHT22;5331;48.148;16.326;2023-07-13T10:39:00;30.20;1.00
10566;DHT22;5331;48.148;16.326;2023-07-13T10:41:32;30.10;1.00
10566;DHT22;5331;48.148;16.326;2023-07-13T10:44:01;29.70;1.00
10566;DHT22;5331;48.148;16.326;2023-07-13T10:46:29;29.40;1.00
10566;DHT22;5331;48.148;16.326;2023-07-13T10:49:01;29.00;1.00
10566;DHT22;5331;48.148;16.326;2023-07-13T10:51:30;29.00;1.00
10566;DHT22;5331;48.148;16.326;2023-07-13T10:54:16;28.60;1.00
10566;DHT22;5331;48.148;16.326;2023-07-13T10:56:44;28.30;1.00
10566;DHT22;5331;48.148;16.326;2023-07-13T10:59:14;28.10;1.00
10566;DHT22;5331;48.148;16.326;2023-07-13T11:01:50;28.00;1.00
10566;DHT22;5331;48.148;16.326;2023-07-13T11:04:20;28.00;1.00
10566;DHT22;5331;48.148;16.326;2023-07-13T11:06:49;28.10;1.00
10566;DHT22;5331;48.148;16.326;2023-07-13T11:09:35;28.20;1.00
10566;DHT22;5331;48.148;16.326;2023-07-13T11:12:08;28.10;1.00
10566;DHT22;5331;48.148;16.326;2023-07-13T11:14:44;28.20;1.00
10566;DHT22;5331;48.148;16.326;2023-07-13T11:17:36;28.00;1.00
10566;DHT22;5331;48.148;16.326;2023-07-13T11:20:33;28.20;1.00
10566;DHT22;5331;48.148;16.326;2023-07-13T11:23:18;28.10;1.00
10566;DHT22;5331;48.148;16.326;2023-07-13T11:25:45;28.10;1.00
10566;DHT22;5331;48.148;16.326;2023-07-13T11:28:22;28.10;1.00
10566;DHT22;5331;48.148;16.326;2023-07-13T11:31:03;27.90;1.00
10566;DHT22;5331;48.148;16.326;2023-07-13T11:33:51;28.00;1.00
10566;DHT22;5331;48.148;16.326;2023-07-13T11:36:21;28.00;1.00
10566;DHT22;5331;48.148;16.326;2023-07-13T11:38:59;27.90;1.00
10566;DHT22;5331;48.148;16.326;2023-07-13T11:41:30;27.80;1.00
10566;DHT22;5331;48.148;16.326;2023-07-13T11:44:06;27.90;1.00
10566;DHT22;5331;48.148;16.326;2023-07-13T11:46:34;27.90;1.00
10566;DHT22;5331;48.148;16.326;2023-07-13T11:49:00;28.10;1.00
10566;DHT22;5331;48.148;16.326;2023-07-13T11:51:31;28.50;1.00
10566;DHT22;5331;48.148;16.326;2023-07-13T11:54:02;28.50;1.00
10566;DHT22;5331;48.148;16.326;2023-07-13T11:56:30;28.90;1.00
10566;DHT22;5331;48.148;16.326;2023-07-13T11:59:03;29.30;1.00
10566;DHT22;5331;48.148;16.326;2023-07-13T12:01:33;29.30;1.00
10566;DHT22;5331;48.148;16.326;2023-07-13T12:04:03;29.40;1.00
10566;DHT22;5331;48.148;16.326;2023-07-13T12:06:34;29.60;1.00
10566;DHT22;5331;48.148;16.326;2023-07-13T12:09:12;29.60;1.00
10566;DHT22;5331;48.148;16.326;2023-07-13T12:11:41;29.80;1.00
10566;DHT22;5331;48.148;16.326;2023-07-13T12:14:13;30.00;1.00
10566;DHT22;5331;48.148;16.326;2023-07-13T12:16:42;30.10;1.00
10566;DHT22;5331;48.148;16.326;2023-07-13T12:19:17;30.20;1.00
10566;DHT22;5331;48.148;16.326;2023-07-13T12:21:47;30.20;1.00
10566;DHT22;5331;48.148;16.326;2023-07-13T12:24:15;30.10;1.00
10566;DHT22;5331;48.148;16.326;2023-07-13T12:26:43;30.10;1.00
10566;DHT22;5331;48.148;16.326;2023-07-13T12:29:16;30.10;1.00
10566;DHT22;5331;48.148;16.326;2023-07-13T12:31:44;30.20;1.00
10566;DHT22;5331;48.148;16.326;2023-07-13T12:34:14;30.50;1.00
10566;DHT22;5331;48.148;16.326;2023-07-13T12:36:49;30.70;1.00
10566;DHT22;5331;48.148;16.326;2023-07-13T12:39:19;31.00;1.00
10566;DHT22;5331;48.148;16.326;2023-07-13T12:41:48;31.00;1.00
10566;DHT22;5331;48.148;16.326;2023-07-13T12:44:17;30.90;1.00
10566;DHT22;5331;48.148;16.326;2023-07-13T12:46:56;30.50;1.00
10566;DHT22;5331;48.148;16.326;2023-07-13T12:49:27;30.10;1.00
10566;DHT22;5331;48.148;16.326;2023-07-13T12:52:01;29.80;1.00
10566;DHT22;5331;48.148;16.326;2023-07-13T12:54:29;29.60;1.00
10566;DHT22;5331;48.148;16.326;2023-07-13T12:56:58;29.50;1.00
10566;DHT22;5331;48.148;16.326;2023-07-13T12:59:31;29.60;1.00
10566;DHT22;5331;48.148;16.326;2023-07-13T13:02:02;29.60;1.00
10566;DHT22;5331;48.148;16.326;2023-07-13T13:04:30;29.50;1.00
10566;DHT22;5331;48.148;16.326;2023-07-13T13:07:08;29.50;1.00
10566;DHT22;5331;48.148;16.326;2023-07-13T13:09:36;29.30;1.00
10566;DHT22;5331;48.148;16.326;2023-07-13T13:12:03;29.10;1.00
10566;DHT22;5331;48.148;16.326;2023-07-13T13:14:31;29.10;1.00
10566;DHT22;5331;48.148;16.326;2023-07-13T13:16:58;29.40;1.00
10566;DHT22;5331;48.148;16.326;2023-07-13T13:19:28;29.50;1.00
10566;DHT22;5331;48.148;16.326;2023-07-13T13:21:56;29.70;1.00
10566;DHT22;5331;48.148;16.326;2023-07-13T13:24:27;29.70;1.00
10566;DHT22;5331;48.148;16.326;2023-07-13T13:26:55;29.50;1.00
10566;DHT22;5331;48.148;16.326;2023-07-13T13:29:24;29.40;1.00
10566;DHT22;5331;48.148;16.326;2023-07-13T13:31:51;29.30;1.00
10566;DHT22;5331;48.148;16.326;2023-07-13T13:34:20;29.20;1.00
10566;DHT22;5331;48.148;16.326;2023-07-13T13:36:49;29.10;1.00
10566;DHT22;5331;48.148;16.326;2023-07-13T13:39:20;29.00;1.00
10566;DHT22;5331;48.148;16.326;2023-07-13T13:41:50;28.90;1.00
10566;DHT22;5331;48.148;16.326;2023-07-13T13:44:18;28.80;1.00
10566;DHT22;5331;48.148;16.326;2023-07-13T13:46:47;28.80;1.00
10566;DHT22;5331;48.148;16.326;2023-07-13T13:49:16;28.70;1.00
10566;DHT22;5331;48.148;16.326;2023-07-13T13:51:44;28.80;1.00
10566;DHT22;5331;48.148;16.326;2023-07-13T13:54:12;28.80;1.00
10566;DHT22;5331;48.148;16.326;2023-07-13T13:56:42;28.60;1.00
10566;DHT22;5331;48.148;16.326;2023-07-13T13:59:10;28.50;1.00
10566;DHT22;5331;48.148;16.326;2023-07-13T14:01:38;28.30;1.00
10566;DHT22;5331;48.148;16.326;2023-07-13T14:04:06;28.40;1.00
10566;DHT22;5331;48.148;16.326;2023-07-13T14:06:34;28.40;1.00
10566;DHT22;5331;48.148;16.326;2023-07-13T14:09:01;28.40;1.00
10566;DHT22;5331;48.148;16.326;2023-07-13T14:11:29;28.30;1.00
10566;DHT22;5331;48.148;16.326;2023-07-13T14:13:59;28.10;1.00
10566;DHT22;5331;48.148;16.326;2023-07-13T14:16:31;28.00;1.00
10566;DHT22;5331;48.148;16.326;2023-07-13T14:18:58;28.00;1.00
10566;DHT22;5331;48.148;16.326;2023-07-13T14:21:27;27.90;1.00
10566;DHT22;5331;48.148;16.326;2023-07-13T14:23:54;27.80;1.00
10566;DHT22;5331;48.148;16.326;2023-07-13T14:26:23;27.80;1.00
10566;DHT22;5331;48.148;16.326;2023-07-13T14:28:51;27.70;1.00
10566;DHT22;5331;48.148;16.326;2023-07-13T14:31:20;27.70;1.00
10566;DHT22;5331;48.148;16.326;2023-07-13T14:33:48;27.60;1.00
10566;DHT22;5331;48.148;16.326;2023-07-13T14:36:27;27.40;1.00
10566;DHT22;5331;48.148;16.326;2023-07-13T14:38:55;27.30;1.00
10566;DHT22;5331;48.148;16.326;2023-07-13T14:41:23;27.20;1.00
10566;DHT22;5331;48.148;16.326;2023-07-13T14:43:50;27.10;1.00
10566;DHT22;5331;48.148;16.326;2023-07-13T14:46:26;26.90;1.00
10566;DHT22;5331;48.148;16.326;2023-07-13T14:49:07;26.80;1.00
10566;DHT22;5331;48.148;16.326;2023-07-13T14:51:37;26.70;1.00
10566;DHT22;5331;48.148;16.326;2023-07-13T14:54:05;26.40;1.00
10566;DHT22;5331;48.148;16.326;2023-07-13T14:56:33;26.30;1.00
10566;DHT22;5331;48.148;16.326;2023-07-13T14:59:00;26.40;1.00
10566;DHT22;5331;48.148;16.326;2023-07-13T15:01:28;26.30;1.00
10566;DHT22;5331;48.148;16.326;2023-07-13T15:03:58;26.40;1.00
10566;DHT22;5331;48.148;16.326;2023-07-13T15:06:26;26.40;1.00
10566;DHT22;5331;48.148;16.326;2023-07-13T15:08:54;26.40;1.00
10566;DHT22;5331;48.148;16.326;2023-07-13T15:11:22;26.40;1.00
10566;DHT22;5331;48.148;16.326;2023-07-13T15:13:50;26.40;1.00
10566;DHT22;5331;48.148;16.326;2023-07-13T15:16:22;26.30;1.00
10566;DHT22;5331;48.148;16.326;2023-07-13T15:18:50;26.30;1.00
10566;DHT22;5331;48.148;16.326;2023-07-13T15:21:22;26.30;1.00
10566;DHT22;5331;48.148;16.326;2023-07-13T15:23:50;26.40;1.00
10566;DHT22;5331;48.148;16.326;2023-07-13T15:26:18;26.30;1.00
10566;DHT22;5331;48.148;16.326;2023-07-13T15:28:46;26.20;1.00
10566;DHT22;5331;48.148;16.326;2023-07-13T15:31:21;26.10;1.00
10566;DHT22;5331;48.148;16.326;2023-07-13T15:33:49;26.10;1.00
10566;DHT22;5331;48.148;16.326;2023-07-13T15:36:17;26.10;1.00
10566;DHT22;5331;48.148;16.326;2023-07-13T15:38:47;26.10;1.00
10566;DHT22;5331;48.148;16.326;2023-07-13T15:41:18;26.00;1.00
10566;DHT22;5331;48.148;16.326;2023-07-13T15:43:48;26.00;1.00
10566;DHT22;5331;48.148;16.326;2023-07-13T15:46:17;25.90;1.00
10566;DHT22;5331;48.148;16.326;2023-07-13T15:48:43;25.80;1.00
10566;DHT22;5331;48.148;16.326;2023-07-13T15:51:15;25.70;1.00
10566;DHT22;5331;48.148;16.326;2023-07-13T15:53:45;25.70;1.00
10566;DHT22;5331;48.148;16.326;2023-07-13T15:56:21;25.60;1.00
10566;DHT22;5331;48.148;16.326;2023-07-13T15:58:49;25.50;1.00